sensor_id;sensor_type;location;lat;lon;timestamp;P1;durP1;ratioP1;P2;durP2;ratioP2
75898;SDS011;64576;50.460;4.866;2022-10-31T00:02:02;13.10;;;7.70;;
75898;SDS011;64576;50.460;4.866;2022-10-31T00:04:28;15.18;;;7.28;;
75898;SDS011;64576;50.460;4.866;2022-10-31T00:06:53;12.05;;;7.00;;
75898;SDS011;64576;50.460;4.866;2022-10-31T00:09:19;11.02;;;8.05;;
75898;SDS011;64576;50.460;4.866;2022-10-31T00:11:44;12.13;;;6.07;;
75898;SDS011;64576;50.460;4.866;2022-10-31T00:14:09;13.57;;;7.40;;
75898;SDS011;64576;50.460;4.866;2022-10-31T00:16:34;13.35;;;6.40;;
75898;SDS011;64576;50.460;4.866;2022-10-31T00:19:01;9.85;;;6.10;;
75898;SDS011;64576;50.460;4.866;2022-10-31T00:21:28;14.35;;;7.55;;
75898;SDS011;64576;50.460;4.866;2022-10-31T00:23:55;7.95;;;5.30;;
75898;SDS011;64576;50.460;4.866;2022-10-31T00:26:22;7.63;;;4.85;;
75898;SDS011;64576;50.460;4.866;2022-10-31T00:28:47;10.32;;;4.28;;
75898;SDS011;64576;50.460;4.866;2022-10-31T00:31:13;8.13;;;4.68;;
75898;SDS011;64576;50.460;4.866;2022-10-31T00:33:39;10.95;;;5.00;;
75898;SDS011;64576;50.460;4.866;2022-10-31T00:36:05;10.68;;;6.22;;
75898;SDS011;64576;50.460;4.866;2022-10-31T00:38:32;13.10;;;7.28;;
75898;SDS011;64576;50.460;4.866;2022-10-31T00:40:57;12.50;;;8.23;;
75898;SDS011;64576;50.460;4.866;2022-10-31T00:43:23;11.93;;;7.60;;
75898;SDS011;64576;50.460;4.866;2022-10-31T00:45:48;13.02;;;8.45;;
75898;SDS011;64576;50.460;4.866;2022-10-31T00:48:14;16.30;;;10.95;;
75898;SDS011;64576;50.460;4.866;2022-10-31T00:50:40;19.83;;;11.38;;
75898;SDS011;64576;50.460;4.866;2022-10-31T00:53:05;21.00;;;12.40;;
75898;SDS011;64576;50.460;4.866;2022-10-31T00:55:31;20.25;;;13.38;;
75898;SDS011;64576;50.460;4.866;2022-10-31T00:57:56;22.13;;;14.10;;
75898;SDS011;64576;50.460;4.866;2022-10-31T01:00:21;27.17;;;14.25;;
75898;SDS011;64576;50.460;4.866;2022-10-31T01:02:47;23.20;;;13.93;;
75898;SDS011;64576;50.460;4.866;2022-10-31T01:05:12;25.77;;;16.23;;
75898;SDS011;64576;50.460;4.866;2022-10-31T01:07:38;24.08;;;15.45;;
75898;SDS011;64576;50.460;4.866;2022-10-31T01:10:05;24.27;;;14.55;;
75898;SDS011;64576;50.460;4.866;2022-10-31T01:12:38;24.27;;;13.93;;
75898;SDS011;64576;50.460;4.866;2022-10-31T01:15:08;22.30;;;14.15;;
75898;SDS011;64576;50.460;4.866;2022-10-31T01:17:34;23.05;;;13.95;;
75898;SDS011;64576;50.460;4.866;2022-10-31T01:19:59;21.90;;;13.18;;
75898;SDS011;64576;50.460;4.866;2022-10-31T01:22:25;21.90;;;13.25;;
75898;SDS011;64576;50.460;4.866;2022-10-31T01:24:50;19.40;;;12.68;;
75898;SDS011;64576;50.460;4.866;2022-10-31T01:27:15;20.13;;;12.02;;
75898;SDS011;64576;50.460;4.866;2022-10-31T01:29:41;18.60;;;11.90;;
75898;SDS011;64576;50.460;4.866;2022-10-31T01:32:06;18.00;;;12.18;;
75898;SDS011;64576;50.460;4.866;2022-10-31T01:34:31;22.48;;;13.52;;
75898;SDS011;64576;50.460;4.866;2022-10-31T01:36:57;24.55;;;13.32;;
75898;SDS011;64576;50.460;4.866;2022-10-31T01:39:22;24.08;;;13.40;;
75898;SDS011;64576;50.460;4.866;2022-10-31T01:41:49;21.40;;;14.30;;
75898;SDS011;64576;50.460;4.866;2022-10-31T01:49:24;20.85;;;13.25;;
75898;SDS011;64576;50.460;4.866;2022-10-31T01:52:04;22.95;;;13.52;;
75898;SDS011;64576;50.460;4.866;2022-10-31T01:54:37;25.52;;;15.63;;
75898;SDS011;64576;50.460;4.866;2022-10-31T01:57:06;26.92;;;15.57;;
75898;SDS011;64576;50.460;4.866;2022-10-31T01:59:36;27.30;;;17.60;;
75898;SDS011;64576;50.460;4.866;2022-10-31T02:02:05;36.08;;;23.67;;
75898;SDS011;64576;50.460;4.866;2022-10-31T02:04:30;32.97;;;24.08;;
75898;SDS011;64576;50.460;4.866;2022-10-31T02:07:01;31.70;;;19.85;;
75898;SDS011;64576;50.460;4.866;2022-10-31T02:09:30;32.03;;;20.58;;
75898;SDS011;64576;50.460;4.866;2022-10-31T02:11:57;30.52;;;18.92;;
75898;SDS011;64576;50.460;4.866;2022-10-31T02:14:25;29.67;;;18.55;;
75898;SDS011;64576;50.460;4.866;2022-10-31T02:16:56;28.77;;;17.88;;
75898;SDS011;64576;50.460;4.866;2022-10-31T02:27:37;30.88;;;16.55;;
75898;SDS011;64576;50.460;4.866;2022-10-31T02:30:18;25.23;;;15.80;;
75898;SDS011;64576;50.460;4.866;2022-10-31T02:32:52;27.55;;;17.45;;
75898;SDS011;64576;50.460;4.866;2022-10-31T02:35:35;28.92;;;14.27;;
75898;SDS011;64576;50.460;4.866;2022-10-31T02:47:14;26.58;;;17.55;;
75898;SDS011;64576;50.460;4.866;2022-10-31T02:49:47;34.38;;;18.13;;
75898;SDS011;64576;50.460;4.866;2022-10-31T02:52:27;31.33;;;16.77;;
75898;SDS011;64576;50.460;4.866;2022-10-31T02:54:53;32.92;;;17.73;;
75898;SDS011;64576;50.460;4.866;2022-10-31T02:57:20;34.85;;;20.80;;
75898;SDS011;64576;50.460;4.866;2022-10-31T02:59:52;27.02;;;16.83;;
75898;SDS011;64576;50.460;4.866;2022-10-31T03:13:09;28.80;;;17.38;;
75898;SDS011;64576;50.460;4.866;2022-10-31T03:15:43;30.45;;;20.08;;
75898;SDS011;64576;50.460;4.866;2022-10-31T03:20:55;36.60;;;20.48;;
75898;SDS011;64576;50.460;4.866;2022-10-31T03:23:23;33.10;;;18.30;;
75898;SDS011;64576;50.460;4.866;2022-10-31T03:25:50;35.05;;;18.70;;
75898;SDS011;64576;50.460;4.866;2022-10-31T03:28:18;35.20;;;18.88;;
75898;SDS011;64576;50.460;4.866;2022-10-31T03:30:50;32.83;;;16.20;;
75898;SDS011;64576;50.460;4.866;2022-10-31T03:33:18;33.60;;;17.70;;
75898;SDS011;64576;50.460;4.866;2022-10-31T03:35:48;42.95;;;21.50;;
75898;SDS011;64576;50.460;4.866;2022-10-31T03:38:18;37.40;;;19.45;;
75898;SDS011;64576;50.460;4.866;2022-10-31T03:40:45;38.80;;;20.02;;
75898;SDS011;64576;50.460;4.866;2022-10-31T03:43:13;33.38;;;18.30;;
75898;SDS011;64576;50.460;4.866;2022-10-31T03:45:43;33.47;;;18.95;;
75898;SDS011;64576;50.460;4.866;2022-10-31T03:48:11;34.22;;;19.27;;
75898;SDS011;64576;50.460;4.866;2022-10-31T03:50:40;33.33;;;18.20;;
75898;SDS011;64576;50.460;4.866;2022-10-31T03:53:15;32.33;;;17.10;;
75898;SDS011;64576;50.460;4.866;2022-10-31T03:55:48;34.83;;;18.27;;
75898;SDS011;64576;50.460;4.866;2022-10-31T03:58:34;28.27;;;15.57;;
75898;SDS011;64576;50.460;4.866;2022-10-31T04:01:02;30.33;;;15.65;;
75898;SDS011;64576;50.460;4.866;2022-10-31T04:03:31;35.08;;;18.38;;
75898;SDS011;64576;50.460;4.866;2022-10-31T04:06:02;37.65;;;19.70;;
75898;SDS011;64576;50.460;4.866;2022-10-31T04:08:31;31.05;;;18.33;;
75898;SDS011;64576;50.460;4.866;2022-10-31T04:11:02;33.13;;;17.65;;
75898;SDS011;64576;50.460;4.866;2022-10-31T04:13:29;30.90;;;17.45;;
75898;SDS011;64576;50.460;4.866;2022-10-31T04:15:58;33.67;;;18.83;;
75898;SDS011;64576;50.460;4.866;2022-10-31T04:18:24;35.20;;;19.67;;
75898;SDS011;64576;50.460;4.866;2022-10-31T04:20:58;40.08;;;20.48;;
75898;SDS011;64576;50.460;4.866;2022-10-31T04:23:25;34.47;;;18.45;;
75898;SDS011;64576;50.460;4.866;2022-10-31T04:25:51;39.65;;;24.80;;
75898;SDS011;64576;50.460;4.866;2022-10-31T04:28:17;42.45;;;24.48;;
75898;SDS011;64576;50.460;4.866;2022-10-31T04:30:43;42.10;;;23.10;;
75898;SDS011;64576;50.460;4.866;2022-10-31T04:33:08;45.40;;;21.98;;
75898;SDS011;64576;50.460;4.866;2022-10-31T04:35:34;39.15;;;20.73;;
75898;SDS011;64576;50.460;4.866;2022-10-31T04:37:59;42.47;;;20.63;;
75898;SDS011;64576;50.460;4.866;2022-10-31T04:40:24;38.92;;;18.33;;
75898;SDS011;64576;50.460;4.866;2022-10-31T04:42:50;43.63;;;24.10;;
75898;SDS011;64576;50.460;4.866;2022-10-31T04:45:15;41.80;;;20.98;;
75898;SDS011;64576;50.460;4.866;2022-10-31T04:47:40;42.20;;;18.92;;
75898;SDS011;64576;50.460;4.866;2022-10-31T04:50:06;35.10;;;18.88;;
75898;SDS011;64576;50.460;4.866;2022-10-31T04:52:32;30.00;;;16.90;;
75898;SDS011;64576;50.460;4.866;2022-10-31T04:54:57;34.65;;;17.42;;
75898;SDS011;64576;50.460;4.866;2022-10-31T04:57:23;30.40;;;18.23;;
75898;SDS011;64576;50.460;4.866;2022-10-31T04:59:48;28.58;;;16.50;;
75898;SDS011;64576;50.460;4.866;2022-10-31T05:02:13;35.08;;;17.23;;
75898;SDS011;64576;50.460;4.866;2022-10-31T05:04:39;36.03;;;18.73;;
75898;SDS011;64576;50.460;4.866;2022-10-31T05:07:04;35.47;;;17.30;;
75898;SDS011;64576;50.460;4.866;2022-10-31T05:09:29;38.72;;;19.58;;
75898;SDS011;64576;50.460;4.866;2022-10-31T05:11:54;43.65;;;21.70;;
75898;SDS011;64576;50.460;4.866;2022-10-31T05:14:20;47.47;;;21.80;;
75898;SDS011;64576;50.460;4.866;2022-10-31T05:16:45;33.72;;;18.88;;
75898;SDS011;64576;50.460;4.866;2022-10-31T05:19:10;35.42;;;17.65;;
75898;SDS011;64576;50.460;4.866;2022-10-31T05:21:36;35.92;;;18.80;;
75898;SDS011;64576;50.460;4.866;2022-10-31T05:24:01;31.88;;;18.35;;
75898;SDS011;64576;50.460;4.866;2022-10-31T05:26:26;28.98;;;17.80;;
75898;SDS011;64576;50.460;4.866;2022-10-31T05:28:52;31.73;;;17.95;;
75898;SDS011;64576;50.460;4.866;2022-10-31T05:31:17;31.17;;;18.05;;
75898;SDS011;64576;50.460;4.866;2022-10-31T05:33:42;40.72;;;21.00;;
75898;SDS011;64576;50.460;4.866;2022-10-31T05:36:07;45.75;;;21.65;;
75898;SDS011;64576;50.460;4.866;2022-10-31T05:38:33;41.60;;;20.90;;
75898;SDS011;64576;50.460;4.866;2022-10-31T05:40:58;35.75;;;17.17;;
75898;SDS011;64576;50.460;4.866;2022-10-31T05:43:25;35.45;;;18.05;;
75898;SDS011;64576;50.460;4.866;2022-10-31T05:45:52;34.13;;;18.40;;
75898;SDS011;64576;50.460;4.866;2022-10-31T05:48:20;37.28;;;18.55;;
75898;SDS011;64576;50.460;4.866;2022-10-31T05:50:46;43.78;;;20.60;;
75898;SDS011;64576;50.460;4.866;2022-10-31T05:53:12;40.42;;;20.27;;
75898;SDS011;64576;50.460;4.866;2022-10-31T05:55:38;39.75;;;20.33;;
75898;SDS011;64576;50.460;4.866;2022-10-31T05:58:05;42.47;;;20.67;;
75898;SDS011;64576;50.460;4.866;2022-10-31T06:00:30;44.03;;;22.92;;
75898;SDS011;64576;50.460;4.866;2022-10-31T06:02:57;40.63;;;21.75;;
75898;SDS011;64576;50.460;4.866;2022-10-31T06:05:27;42.75;;;19.48;;
75898;SDS011;64576;50.460;4.866;2022-10-31T06:07:52;44.33;;;20.13;;
75898;SDS011;64576;50.460;4.866;2022-10-31T06:10:18;45.60;;;20.88;;
75898;SDS011;64576;50.460;4.866;2022-10-31T06:12:45;40.78;;;18.27;;
75898;SDS011;64576;50.460;4.866;2022-10-31T06:15:11;31.58;;;17.05;;
75898;SDS011;64576;50.460;4.866;2022-10-31T06:17:36;40.47;;;19.45;;
75898;SDS011;64576;50.460;4.866;2022-10-31T06:20:02;40.60;;;18.05;;
75898;SDS011;64576;50.460;4.866;2022-10-31T06:22:28;84.03;;;24.30;;
75898;SDS011;64576;50.460;4.866;2022-10-31T06:24:53;44.25;;;19.55;;
75898;SDS011;64576;50.460;4.866;2022-10-31T06:27:18;49.28;;;24.15;;
75898;SDS011;64576;50.460;4.866;2022-10-31T06:29:44;54.97;;;23.08;;
75898;SDS011;64576;50.460;4.866;2022-10-31T06:32:11;50.25;;;22.02;;
75898;SDS011;64576;50.460;4.866;2022-10-31T06:34:37;47.10;;;22.98;;
75898;SDS011;64576;50.460;4.866;2022-10-31T06:37:02;45.42;;;21.83;;
75898;SDS011;64576;50.460;4.866;2022-10-31T06:39:27;43.40;;;22.58;;
75898;SDS011;64576;50.460;4.866;2022-10-31T06:41:53;48.38;;;23.35;;
75898;SDS011;64576;50.460;4.866;2022-10-31T06:44:18;55.75;;;27.08;;
75898;SDS011;64576;50.460;4.866;2022-10-31T06:46:45;39.13;;;21.35;;
75898;SDS011;64576;50.460;4.866;2022-10-31T06:49:11;43.78;;;20.98;;
75898;SDS011;64576;50.460;4.866;2022-10-31T06:51:37;45.00;;;21.35;;
75898;SDS011;64576;50.460;4.866;2022-10-31T06:54:02;41.78;;;20.55;;
75898;SDS011;64576;50.460;4.866;2022-10-31T06:56:27;46.13;;;21.95;;
75898;SDS011;64576;50.460;4.866;2022-10-31T06:58:53;42.08;;;19.48;;
75898;SDS011;64576;50.460;4.866;2022-10-31T07:01:18;43.42;;;19.60;;
75898;SDS011;64576;50.460;4.866;2022-10-31T07:03:43;35.08;;;18.80;;
75898;SDS011;64576;50.460;4.866;2022-10-31T07:06:09;32.38;;;16.45;;
75898;SDS011;64576;50.460;4.866;2022-10-31T07:08:34;108.18;;;25.27;;
75898;SDS011;64576;50.460;4.866;2022-10-31T07:10:59;157.55;;;26.70;;
75898;SDS011;64576;50.460;4.866;2022-10-31T07:13:24;38.97;;;18.73;;
75898;SDS011;64576;50.460;4.866;2022-10-31T07:15:51;44.67;;;20.48;;
75898;SDS011;64576;50.460;4.866;2022-10-31T07:18:20;51.03;;;22.33;;
75898;SDS011;64576;50.460;4.866;2022-10-31T07:20:46;37.70;;;18.23;;
75898;SDS011;64576;50.460;4.866;2022-10-31T07:23:12;32.03;;;17.83;;
75898;SDS011;64576;50.460;4.866;2022-10-31T07:25:38;30.13;;;16.13;;
75898;SDS011;64576;50.460;4.866;2022-10-31T07:28:04;25.10;;;15.77;;
75898;SDS011;64576;50.460;4.866;2022-10-31T07:30:29;26.92;;;16.15;;
75898;SDS011;64576;50.460;4.866;2022-10-31T07:32:55;35.15;;;17.88;;
75898;SDS011;64576;50.460;4.866;2022-10-31T07:35:24;34.63;;;18.48;;
75898;SDS011;64576;50.460;4.866;2022-10-31T07:37:52;34.33;;;17.05;;
75898;SDS011;64576;50.460;4.866;2022-10-31T07:40:17;28.02;;;16.42;;
75898;SDS011;64576;50.460;4.866;2022-10-31T07:42:44;31.40;;;16.23;;
75898;SDS011;64576;50.460;4.866;2022-10-31T07:45:11;35.30;;;17.30;;
75898;SDS011;64576;50.460;4.866;2022-10-31T07:47:42;29.40;;;15.85;;
75898;SDS011;64576;50.460;4.866;2022-10-31T07:50:09;27.60;;;14.40;;
75898;SDS011;64576;50.460;4.866;2022-10-31T07:52:37;21.73;;;14.32;;
75898;SDS011;64576;50.460;4.866;2022-10-31T07:55:02;26.40;;;14.23;;
75898;SDS011;64576;50.460;4.866;2022-10-31T07:57:29;26.38;;;13.23;;
75898;SDS011;64576;50.460;4.866;2022-10-31T07:59:54;23.40;;;14.48;;
75898;SDS011;64576;50.460;4.866;2022-10-31T08:02:19;23.50;;;12.68;;
75898;SDS011;64576;50.460;4.866;2022-10-31T08:04:45;19.98;;;12.23;;
75898;SDS011;64576;50.460;4.866;2022-10-31T08:07:10;19.10;;;11.63;;
75898;SDS011;64576;50.460;4.866;2022-10-31T08:09:36;16.08;;;11.07;;
75898;SDS011;64576;50.460;4.866;2022-10-31T08:12:01;21.02;;;12.27;;
75898;SDS011;64576;50.460;4.866;2022-10-31T08:14:26;20.00;;;12.25;;
75898;SDS011;64576;50.460;4.866;2022-10-31T08:16:52;21.30;;;11.45;;
75898;SDS011;64576;50.460;4.866;2022-10-31T08:19:18;20.00;;;12.15;;
75898;SDS011;64576;50.460;4.866;2022-10-31T08:21:43;20.92;;;12.73;;
75898;SDS011;64576;50.460;4.866;2022-10-31T08:24:09;22.52;;;12.07;;
75898;SDS011;64576;50.460;4.866;2022-10-31T08:26:34;18.15;;;12.05;;
75898;SDS011;64576;50.460;4.866;2022-10-31T08:28:59;16.50;;;11.45;;
75898;SDS011;64576;50.460;4.866;2022-10-31T08:31:25;18.45;;;11.32;;
75898;SDS011;64576;50.460;4.866;2022-10-31T08:33:52;19.20;;;12.05;;
75898;SDS011;64576;50.460;4.866;2022-10-31T08:36:18;18.58;;;10.50;;
75898;SDS011;64576;50.460;4.866;2022-10-31T08:38:44;16.48;;;10.65;;
75898;SDS011;64576;50.460;4.866;2022-10-31T08:41:09;18.50;;;10.05;;
75898;SDS011;64576;50.460;4.866;2022-10-31T08:43:34;18.95;;;11.52;;
75898;SDS011;64576;50.460;4.866;2022-10-31T08:45:59;19.50;;;12.75;;
75898;SDS011;64576;50.460;4.866;2022-10-31T08:48:25;18.25;;;11.77;;
75898;SDS011;64576;50.460;4.866;2022-10-31T08:50:50;21.73;;;11.80;;
75898;SDS011;64576;50.460;4.866;2022-10-31T08:53:16;21.25;;;10.73;;
75898;SDS011;64576;50.460;4.866;2022-10-31T08:55:43;15.93;;;8.93;;
75898;SDS011;64576;50.460;4.866;2022-10-31T08:58:11;20.50;;;9.63;;
75898;SDS011;64576;50.460;4.866;2022-10-31T09:00:38;16.00;;;9.23;;
75898;SDS011;64576;50.460;4.866;2022-10-31T09:03:05;15.52;;;8.15;;
75898;SDS011;64576;50.460;4.866;2022-10-31T09:05:38;16.15;;;9.50;;
75898;SDS011;64576;50.460;4.866;2022-10-31T09:08:04;13.25;;;8.85;;
75898;SDS011;64576;50.460;4.866;2022-10-31T09:10:31;13.98;;;7.88;;
75898;SDS011;64576;50.460;4.866;2022-10-31T09:13:17;13.18;;;8.07;;
75898;SDS011;64576;50.460;4.866;2022-10-31T09:15:44;15.88;;;7.68;;
75898;SDS011;64576;50.460;4.866;2022-10-31T09:18:11;13.13;;;8.43;;
75898;SDS011;64576;50.460;4.866;2022-10-31T09:20:38;13.20;;;7.40;;
75898;SDS011;64576;50.460;4.866;2022-10-31T09:23:06;14.07;;;7.50;;
75898;SDS011;64576;50.460;4.866;2022-10-31T09:25:34;10.27;;;7.13;;
75898;SDS011;64576;50.460;4.866;2022-10-31T09:28:00;10.48;;;6.43;;
75898;SDS011;64576;50.460;4.866;2022-10-31T09:30:28;12.00;;;7.18;;
75898;SDS011;64576;50.460;4.866;2022-10-31T09:32:58;14.05;;;7.90;;
75898;SDS011;64576;50.460;4.866;2022-10-31T09:35:24;14.75;;;9.68;;
75898;SDS011;64576;50.460;4.866;2022-10-31T09:37:54;11.35;;;6.15;;
75898;SDS011;64576;50.460;4.866;2022-10-31T09:40:20;13.45;;;6.20;;
75898;SDS011;64576;50.460;4.866;2022-10-31T09:48:25;11.45;;;6.40;;
75898;SDS011;64576;50.460;4.866;2022-10-31T09:51:01;11.73;;;6.38;;
75898;SDS011;64576;50.460;4.866;2022-10-31T09:56:06;13.15;;;6.20;;
75898;SDS011;64576;50.460;4.866;2022-10-31T09:58:36;12.15;;;6.07;;
75898;SDS011;64576;50.460;4.866;2022-10-31T10:01:06;13.02;;;8.50;;
75898;SDS011;64576;50.460;4.866;2022-10-31T10:03:59;11.02;;;6.68;;
75898;SDS011;64576;50.460;4.866;2022-10-31T10:06:29;9.63;;;5.90;;
75898;SDS011;64576;50.460;4.866;2022-10-31T10:08:59;11.90;;;6.00;;
75898;SDS011;64576;50.460;4.866;2022-10-31T10:14:04;11.50;;;5.85;;
75898;SDS011;64576;50.460;4.866;2022-10-31T10:33:36;10.40;;;5.65;;
75898;SDS011;64576;50.460;4.866;2022-10-31T10:36:17;12.20;;;6.20;;
75898;SDS011;64576;50.460;4.866;2022-10-31T10:41:19;12.13;;;7.13;;
75898;SDS011;64576;50.460;4.866;2022-10-31T10:43:52;13.25;;;6.15;;
75898;SDS011;64576;50.460;4.866;2022-10-31T10:51:54;13.25;;;6.70;;
75898;SDS011;64576;50.460;4.866;2022-10-31T10:57:20;9.73;;;5.78;;
75898;SDS011;64576;50.460;4.866;2022-10-31T10:59:47;10.50;;;5.55;;
75898;SDS011;64576;50.460;4.866;2022-10-31T11:02:17;10.73;;;5.68;;
75898;SDS011;64576;50.460;4.866;2022-10-31T11:04:45;12.27;;;5.38;;
75898;SDS011;64576;50.460;4.866;2022-10-31T11:07:14;7.65;;;5.00;;
75898;SDS011;64576;50.460;4.866;2022-10-31T11:09:40;9.85;;;5.72;;
75898;SDS011;64576;50.460;4.866;2022-10-31T11:12:07;14.32;;;5.85;;
75898;SDS011;64576;50.460;4.866;2022-10-31T11:14:44;13.57;;;5.80;;
75898;SDS011;64576;50.460;4.866;2022-10-31T11:17:17;8.85;;;5.25;;
75898;SDS011;64576;50.460;4.866;2022-10-31T11:19:47;10.13;;;5.60;;
75898;SDS011;64576;50.460;4.866;2022-10-31T11:22:16;11.65;;;5.90;;
75898;SDS011;64576;50.460;4.866;2022-10-31T11:24:42;11.02;;;4.97;;
75898;SDS011;64576;50.460;4.866;2022-10-31T11:27:21;13.05;;;5.78;;
75898;SDS011;64576;50.460;4.866;2022-10-31T11:29:49;12.18;;;5.68;;
75898;SDS011;64576;50.460;4.866;2022-10-31T11:32:16;9.55;;;5.32;;
75898;SDS011;64576;50.460;4.866;2022-10-31T11:34:43;10.20;;;6.15;;
75898;SDS011;64576;50.460;4.866;2022-10-31T11:37:18;13.50;;;5.05;;
75898;SDS011;64576;50.460;4.866;2022-10-31T11:39:52;11.50;;;4.63;;
75898;SDS011;64576;50.460;4.866;2022-10-31T11:42:20;9.75;;;5.45;;
75898;SDS011;64576;50.460;4.866;2022-10-31T11:44:48;10.13;;;5.03;;
75898;SDS011;64576;50.460;4.866;2022-10-31T11:47:15;11.25;;;4.78;;
75898;SDS011;64576;50.460;4.866;2022-10-31T11:49:43;14.48;;;5.32;;
75898;SDS011;64576;50.460;4.866;2022-10-31T11:52:29;11.30;;;4.88;;
75898;SDS011;64576;50.460;4.866;2022-10-31T12:00:26;11.57;;;6.05;;
75898;SDS011;64576;50.460;4.866;2022-10-31T12:03:10;14.35;;;6.50;;
75898;SDS011;64576;50.460;4.866;2022-10-31T12:05:41;12.15;;;5.90;;
75898;SDS011;64576;50.460;4.866;2022-10-31T12:08:10;10.90;;;5.00;;
75898;SDS011;64576;50.460;4.866;2022-10-31T12:10:40;13.00;;;5.13;;
75898;SDS011;64576;50.460;4.866;2022-10-31T12:13:33;13.10;;;4.95;;
75898;SDS011;64576;50.460;4.866;2022-10-31T12:16:05;15.95;;;7.22;;
75898;SDS011;64576;50.460;4.866;2022-10-31T12:46:13;9.63;;;3.42;;
75898;SDS011;64576;50.460;4.866;2022-10-31T12:49:12;10.18;;;5.25;;
75898;SDS011;64576;50.460;4.866;2022-10-31T12:51:43;9.85;;;4.80;;
75898;SDS011;64576;50.460;4.866;2022-10-31T12:57:36;10.60;;;4.05;;
75898;SDS011;64576;50.460;4.866;2022-10-31T13:00:14;8.75;;;4.70;;
75898;SDS011;64576;50.460;4.866;2022-10-31T13:02:48;15.48;;;5.63;;
75898;SDS011;64576;50.460;4.866;2022-10-31T13:05:30;17.20;;;6.97;;
75898;SDS011;64576;50.460;4.866;2022-10-31T13:08:06;12.80;;;6.30;;
75898;SDS011;64576;50.460;4.866;2022-10-31T13:10:43;9.80;;;4.47;;
75898;SDS011;64576;50.460;4.866;2022-10-31T13:13:13;9.82;;;4.38;;
75898;SDS011;64576;50.460;4.866;2022-10-31T13:16:00;11.30;;;5.07;;
75898;SDS011;64576;50.460;4.866;2022-10-31T13:18:32;10.60;;;4.68;;
75898;SDS011;64576;50.460;4.866;2022-10-31T13:21:03;9.35;;;4.75;;
75898;SDS011;64576;50.460;4.866;2022-10-31T13:23:34;10.68;;;4.57;;
75898;SDS011;64576;50.460;4.866;2022-10-31T13:26:12;7.05;;;3.42;;
75898;SDS011;64576;50.460;4.866;2022-10-31T13:28:43;10.15;;;4.35;;
75898;SDS011;64576;50.460;4.866;2022-10-31T13:31:12;10.85;;;4.40;;
75898;SDS011;64576;50.460;4.866;2022-10-31T13:33:54;10.20;;;4.05;;
75898;SDS011;64576;50.460;4.866;2022-10-31T13:42:14;9.95;;;3.63;;
75898;SDS011;64576;50.460;4.866;2022-10-31T13:44:50;11.05;;;3.72;;
75898;SDS011;64576;50.460;4.866;2022-10-31T13:47:20;7.40;;;3.60;;
75898;SDS011;64576;50.460;4.866;2022-10-31T13:49:49;6.82;;;3.67;;
75898;SDS011;64576;50.460;4.866;2022-10-31T13:52:16;9.80;;;3.85;;
75898;SDS011;64576;50.460;4.866;2022-10-31T13:54:52;11.70;;;3.85;;
75898;SDS011;64576;50.460;4.866;2022-10-31T13:57:31;8.60;;;3.58;;
75898;SDS011;64576;50.460;4.866;2022-10-31T14:00:05;9.68;;;3.80;;
75898;SDS011;64576;50.460;4.866;2022-10-31T14:02:31;6.50;;;3.60;;
75898;SDS011;64576;50.460;4.866;2022-10-31T14:05:00;10.43;;;3.78;;
75898;SDS011;64576;50.460;4.866;2022-10-31T14:07:29;8.57;;;4.10;;
75898;SDS011;64576;50.460;4.866;2022-10-31T14:10:00;10.45;;;3.80;;
75898;SDS011;64576;50.460;4.866;2022-10-31T14:12:46;11.65;;;3.65;;
75898;SDS011;64576;50.460;4.866;2022-10-31T14:15:20;7.53;;;3.75;;
75898;SDS011;64576;50.460;4.866;2022-10-31T14:17:48;8.43;;;3.97;;
75898;SDS011;64576;50.460;4.866;2022-10-31T14:22:50;9.63;;;4.35;;
75898;SDS011;64576;50.460;4.866;2022-10-31T14:25:34;10.77;;;3.95;;
75898;SDS011;64576;50.460;4.866;2022-10-31T14:28:02;8.57;;;3.30;;
75898;SDS011;64576;50.460;4.866;2022-10-31T14:30:50;10.77;;;3.95;;
75898;SDS011;64576;50.460;4.866;2022-10-31T14:33:18;8.73;;;3.88;;
75898;SDS011;64576;50.460;4.866;2022-10-31T14:35:54;7.82;;;3.38;;
75898;SDS011;64576;50.460;4.866;2022-10-31T14:44:30;11.90;;;4.10;;
75898;SDS011;64576;50.460;4.866;2022-10-31T14:52:28;7.75;;;3.42;;
75898;SDS011;64576;50.460;4.866;2022-10-31T14:54:54;11.13;;;3.70;;
75898;SDS011;64576;50.460;4.866;2022-10-31T14:57:25;12.23;;;4.30;;
75898;SDS011;64576;50.460;4.866;2022-10-31T15:02:30;11.80;;;3.22;;
75898;SDS011;64576;50.460;4.866;2022-10-31T15:05:06;8.05;;;3.55;;
75898;SDS011;64576;50.460;4.866;2022-10-31T15:07:35;7.93;;;3.97;;
75898;SDS011;64576;50.460;4.866;2022-10-31T15:10:06;7.50;;;3.80;;
75898;SDS011;64576;50.460;4.866;2022-10-31T15:12:44;9.20;;;3.53;;
75898;SDS011;64576;50.460;4.866;2022-10-31T15:15:10;8.93;;;3.67;;
75898;SDS011;64576;50.460;4.866;2022-10-31T15:17:41;7.15;;;3.63;;
75898;SDS011;64576;50.460;4.866;2022-10-31T15:20:12;7.65;;;3.85;;
75898;SDS011;64576;50.460;4.866;2022-10-31T15:22:44;8.02;;;3.72;;
75898;SDS011;64576;50.460;4.866;2022-10-31T15:25:16;8.90;;;3.83;;
75898;SDS011;64576;50.460;4.866;2022-10-31T15:27:43;8.50;;;4.70;;
75898;SDS011;64576;50.460;4.866;2022-10-31T15:30:19;10.30;;;4.78;;
75898;SDS011;64576;50.460;4.866;2022-10-31T15:32:49;10.70;;;4.57;;
75898;SDS011;64576;50.460;4.866;2022-10-31T15:35:33;12.82;;;4.90;;
75898;SDS011;64576;50.460;4.866;2022-10-31T15:37:59;11.98;;;5.50;;
75898;SDS011;64576;50.460;4.866;2022-10-31T15:40:26;11.25;;;4.13;;
75898;SDS011;64576;50.460;4.866;2022-10-31T15:43:04;10.10;;;4.03;;
75898;SDS011;64576;50.460;4.866;2022-10-31T15:45:31;8.23;;;4.47;;
75898;SDS011;64576;50.460;4.866;2022-10-31T15:47:57;11.55;;;5.22;;
75898;SDS011;64576;50.460;4.866;2022-10-31T15:50:32;7.55;;;4.13;;
75898;SDS011;64576;50.460;4.866;2022-10-31T15:53:05;9.30;;;4.10;;
75898;SDS011;64576;50.460;4.866;2022-10-31T15:55:44;13.02;;;4.40;;
75898;SDS011;64576;50.460;4.866;2022-10-31T15:58:14;8.95;;;3.88;;
75898;SDS011;64576;50.460;4.866;2022-10-31T16:00:42;9.35;;;3.70;;
75898;SDS011;64576;50.460;4.866;2022-10-31T16:03:18;10.77;;;4.05;;
75898;SDS011;64576;50.460;4.866;2022-10-31T16:05:50;9.18;;;4.22;;
75898;SDS011;64576;50.460;4.866;2022-10-31T16:08:24;8.55;;;3.95;;
75898;SDS011;64576;50.460;4.866;2022-10-31T16:11:14;10.75;;;3.83;;
75898;SDS011;64576;50.460;4.866;2022-10-31T16:16:25;9.63;;;4.10;;
75898;SDS011;64576;50.460;4.866;2022-10-31T16:18:51;7.05;;;3.78;;
75898;SDS011;64576;50.460;4.866;2022-10-31T16:21:32;13.02;;;4.28;;
75898;SDS011;64576;50.460;4.866;2022-10-31T16:24:01;8.82;;;3.45;;
75898;SDS011;64576;50.460;4.866;2022-10-31T16:26:40;10.10;;;3.92;;
75898;SDS011;64576;50.460;4.866;2022-10-31T16:29:22;10.40;;;4.57;;
75898;SDS011;64576;50.460;4.866;2022-10-31T16:31:54;8.63;;;3.63;;
75898;SDS011;64576;50.460;4.866;2022-10-31T16:34:20;7.47;;;4.20;;
75898;SDS011;64576;50.460;4.866;2022-10-31T16:36:47;10.82;;;4.15;;
75898;SDS011;64576;50.460;4.866;2022-10-31T16:39:13;9.95;;;4.28;;
75898;SDS011;64576;50.460;4.866;2022-10-31T16:41:40;10.13;;;4.43;;
75898;SDS011;64576;50.460;4.866;2022-10-31T16:44:13;7.07;;;4.20;;
75898;SDS011;64576;50.460;4.866;2022-10-31T16:46:43;10.40;;;4.78;;
75898;SDS011;64576;50.460;4.866;2022-10-31T16:49:09;7.75;;;4.05;;
75898;SDS011;64576;50.460;4.866;2022-10-31T16:51:34;9.13;;;4.15;;
75898;SDS011;64576;50.460;4.866;2022-10-31T16:54:00;10.65;;;4.63;;
75898;SDS011;64576;50.460;4.866;2022-10-31T16:56:29;7.93;;;3.75;;
75898;SDS011;64576;50.460;4.866;2022-10-31T16:58:57;11.75;;;4.20;;